General Aviation Weather

Text Reports

Enter one or more of the following location identifiers separated by a space:

Zip Code, Four-Character ICAO or Three-Character IATA airport codes.

METAR - Aviation Routine Weather Report
KGDJ - Granbury, Texas
Updated at 11:35 PM GMT on January 26, 2015 (5:35 PM CST):
METAR KGDJ 262335Z AUTO 26003KT 10SM CLR 22/01 A3010 RMK AO2 T02240013
TAF - Terminal Area Forecast
KGDJ - Granbury, Texas
Updated at 11:35 PM GMT on January 26, 2015 (5:35 PM CST):
No TAF is currently available for this location.
Decoded:
No decoded TAF is available.
PIREP - Pilot Weather Report
KGDJ - Granbury, Texas
Updated at 11:35 PM GMT on January 26, 2015 (5:35 PM CST):
No PIREP is currently available for this location.
AIRMET - Airmens Meteorological Information
KGDJ - Granbury, Texas
Updated at 11:35 PM GMT on January 26, 2015 (5:35 PM CST):
No AIRMET is currently available for this location.
SIGMET - Significant Meteorological Information
KGDJ - Granbury, Texas
Updated at 11:35 PM GMT on January 26, 2015 (5:35 PM CST):
No SIGMET is currently available for this location.
NOTAM - Notice to Airmen
KGDJ - Granbury, Texas
Updated at 11:35 PM GMT on January 26, 2015 (5:35 PM CST):
No NOTAM is currently available for this location.
Forecast Area
KGDJ - Granbury, Texas
Updated at 11:35 PM GMT on January 26, 2015 (5:35 PM CST):
No NOTAM is currently available for this location.
Aviation Weather Maps